Terminal Aerodrome Forecast
Issued by NWS

Home | Current Version | Previous Version | Text Only | Print | Product List | Glossary On
Versions: 1 2 3 4 5 6 7 8 9 10
262
FTUS46 KSTO 241120
TAFSCK
TAF
KSCK 241120Z 2412/2512 27011KT P6SM OVC080
      TEMPO 2422/2502 28016G24KT=

USA.gov is the U.S. government's official web portal to all federal, state and local government web resources and services.